createdAt,value
2018-07-03T00:02:04.885Z,5.10
2018-07-03T00:04:34.170Z,4.20
2018-07-03T00:07:03.757Z,3.60
2018-07-03T00:09:32.937Z,4.50
2018-07-03T00:12:02.151Z,3.93
2018-07-03T00:14:31.561Z,4.30
2018-07-03T00:17:06.854Z,4.13
2018-07-03T00:19:36.881Z,3.43
2018-07-03T00:22:06.133Z,3.77
2018-07-03T00:24:36.665Z,3.50
2018-07-03T00:27:06.133Z,4.10
2018-07-03T00:29:35.289Z,4.00
2018-07-03T00:32:04.724Z,3.60
2018-07-03T00:34:33.959Z,4.23
2018-07-03T00:37:03.423Z,3.63
2018-07-03T00:39:32.780Z,3.80
2018-07-03T00:42:02.188Z,3.97
2018-07-03T00:44:32.880Z,3.60
2018-07-03T00:47:02.159Z,4.07
2018-07-03T00:49:31.585Z,3.57
2018-07-03T00:52:00.897Z,3.73
2018-07-03T00:54:31.018Z,3.87
2018-07-03T00:57:00.287Z,3.97
2018-07-03T00:59:31.038Z,3.93
2018-07-03T01:02:00.277Z,5.03
2018-07-03T01:04:29.589Z,3.60
2018-07-03T01:06:59.418Z,3.87
2018-07-03T01:09:29.218Z,3.67
2018-07-03T01:11:58.465Z,4.23
2018-07-03T01:14:29.074Z,3.67
2018-07-03T01:16:58.434Z,3.40
2018-07-03T01:19:27.662Z,3.60
2018-07-03T01:21:56.869Z,3.20
2018-07-03T01:24:26.126Z,3.73
2018-07-03T01:44:41.212Z,4.20
2018-07-03T01:47:10.425Z,4.17
2018-07-03T01:49:39.600Z,4.50
2018-07-03T01:52:08.937Z,4.20
2018-07-03T01:54:38.838Z,4.17
2018-07-03T01:57:09.087Z,4.10
2018-07-03T01:59:39.818Z,4.40
2018-07-03T02:02:09.113Z,4.97
2018-07-03T02:04:38.548Z,4.73
2018-07-03T02:07:08.810Z,4.67
2018-07-03T02:09:38.102Z,5.07
2018-07-03T02:12:07.392Z,4.87
2018-07-03T02:14:36.676Z,5.13
2018-07-03T02:17:06.868Z,5.30
2018-07-03T02:19:36.095Z,5.40
2018-07-03T02:22:05.477Z,4.87
2018-07-03T02:24:34.781Z,4.93
2018-07-03T02:27:05.082Z,4.80
2018-07-03T02:29:34.514Z,6.50
2018-07-03T02:32:03.745Z,5.27
2018-07-03T02:34:33.061Z,5.77
2018-07-03T02:37:02.367Z,5.00
2018-07-03T02:39:32.810Z,5.57
2018-07-03T02:42:03.474Z,5.07
2018-07-03T02:44:33.273Z,5.77
2018-07-03T02:47:02.493Z,5.60
2018-07-03T02:49:31.801Z,5.47
2018-07-03T02:52:00.989Z,5.43
2018-07-03T02:54:30.271Z,9.37
2018-07-03T02:56:59.773Z,5.77
2018-07-03T02:59:29.080Z,5.30
2018-07-03T03:01:58.403Z,5.77
2018-07-03T03:04:27.670Z,5.37
2018-07-03T03:06:57.697Z,5.43
2018-07-03T03:09:27.091Z,4.90
2018-07-03T03:11:57.838Z,5.93
2018-07-03T03:14:27.769Z,4.73
2018-07-03T03:16:57.144Z,4.73
2018-07-03T03:19:26.381Z,5.93
2018-07-03T03:21:55.923Z,4.57
2018-07-03T03:24:25.093Z,4.83
2018-07-03T03:44:39.945Z,5.10
2018-07-03T03:47:09.234Z,5.10
2018-07-03T03:49:38.433Z,4.80
2018-07-03T03:52:07.645Z,5.10
2018-07-03T03:54:37.478Z,4.67
2018-07-03T03:57:06.837Z,4.60
2018-07-03T03:59:37.610Z,4.97
2018-07-03T04:02:06.965Z,4.80
2018-07-03T04:04:36.126Z,4.47
2018-07-03T04:07:05.578Z,4.20
2018-07-03T04:09:35.695Z,4.50
2018-07-03T04:12:05.138Z,4.60
2018-07-03T04:14:34.967Z,5.13
2018-07-03T04:17:04.217Z,5.03
2018-07-03T04:37:18.554Z,5.73
2018-07-03T04:57:33.596Z,5.47
2018-07-03T05:00:02.825Z,5.77
2018-07-03T05:02:32.853Z,6.13
2018-07-03T05:22:47.684Z,7.00
2018-07-03T05:25:16.915Z,8.43
2018-07-03T05:27:46.283Z,8.53
2018-07-03T05:30:15.538Z,7.53
2018-07-03T05:32:44.749Z,8.67
2018-07-03T05:35:14.156Z,8.63
2018-07-03T05:37:43.409Z,7.83
2018-07-03T05:40:12.659Z,8.10
2018-07-03T05:42:42.400Z,9.23
2018-07-03T05:45:11.782Z,8.80
2018-07-03T05:47:41.030Z,6.87
2018-07-03T05:50:10.257Z,7.20
2018-07-03T05:52:39.513Z,6.77
2018-07-03T05:55:08.957Z,7.13
2018-07-03T05:57:38.259Z,7.27
2018-07-03T06:00:08.925Z,7.57
2018-07-03T06:02:39.625Z,8.13
2018-07-03T06:05:09.056Z,9.67
2018-07-03T06:07:39.068Z,8.23
2018-07-03T06:10:08.297Z,7.57
2018-07-03T06:30:29.881Z,9.17
2018-07-03T06:32:59.178Z,10.37
2018-07-03T06:35:28.978Z,10.90
2018-07-03T06:37:58.212Z,14.07
2018-07-03T06:40:27.525Z,50.93
2018-07-03T06:42:57.474Z,22.70
2018-07-03T06:45:27.026Z,26.93
2018-07-03T06:47:56.956Z,20.77
2018-07-03T06:50:27.057Z,19.97
2018-07-03T06:52:56.329Z,20.20
2018-07-03T06:55:26.557Z,21.37
2018-07-03T06:57:55.843Z,18.60
2018-07-03T07:00:25.068Z,25.60
2018-07-03T07:02:55.129Z,22.83
2018-07-03T07:05:24.378Z,21.30
2018-07-03T07:07:53.605Z,20.13
2018-07-03T07:10:23.021Z,26.70
2018-07-03T07:12:53.000Z,25.67
2018-07-03T07:15:22.366Z,24.63
2018-07-03T07:17:51.750Z,17.23
2018-07-03T07:20:21.620Z,15.57
2018-07-03T07:22:51.358Z,10.37
2018-07-03T07:25:20.620Z,16.13
2018-07-03T07:27:49.902Z,16.60
2018-07-03T07:30:19.294Z,17.10
2018-07-03T07:32:49.931Z,14.37
2018-07-03T07:35:19.197Z,14.07
2018-07-03T07:37:49.418Z,10.40
2018-07-03T07:40:18.716Z,11.27
2018-07-03T07:42:48.211Z,11.70
2018-07-03T07:45:17.870Z,15.73
2018-07-03T07:47:47.777Z,22.03
2018-07-03T07:50:17.013Z,20.73
2018-07-03T07:52:46.285Z,14.73
2018-07-03T07:55:15.550Z,13.30
2018-07-03T07:57:44.904Z,13.40
2018-07-03T08:00:14.921Z,12.33
2018-07-03T08:20:29.785Z,8.10
2018-07-03T08:22:59.063Z,9.07
2018-07-03T08:25:28.366Z,9.07
2018-07-03T08:27:58.708Z,8.17
2018-07-03T08:48:13.936Z,6.73
2018-07-03T08:50:43.105Z,7.07
2018-07-03T08:53:13.049Z,5.80
2018-07-03T08:55:42.431Z,6.40
2018-07-03T08:58:11.785Z,9.27
2018-07-03T09:00:41.033Z,6.03
2018-07-03T09:03:11.466Z,12.47
2018-07-03T09:05:40.699Z,12.00
2018-07-03T09:08:09.945Z,7.30
2018-07-03T09:10:39.378Z,9.13
2018-07-03T09:13:08.760Z,8.03
2018-07-03T09:15:37.998Z,8.33
2018-07-03T09:18:07.338Z,7.30
2018-07-03T09:20:36.529Z,6.43
2018-07-03T09:23:05.828Z,10.33
2018-07-03T09:25:35.073Z,7.47
2018-07-03T09:28:04.381Z,6.97
2018-07-03T09:30:33.758Z,7.17
2018-07-03T09:33:03.001Z,7.80
2018-07-03T09:35:33.899Z,7.67
2018-07-03T09:38:03.174Z,6.37
2018-07-03T09:40:32.477Z,7.10
2018-07-03T09:43:01.405Z,7.20
2018-07-03T09:45:30.656Z,6.63
2018-07-03T09:47:59.858Z,7.10
2018-07-03T10:08:14.174Z,6.33
2018-07-03T10:10:43.531Z,7.57
2018-07-03T10:13:14.128Z,7.53
2018-07-03T10:33:28.184Z,8.00
2018-07-03T10:35:58.097Z,6.87
2018-07-03T10:56:12.259Z,6.87
2018-07-03T10:58:42.072Z,7.77
2018-07-03T11:01:11.384Z,8.73
2018-07-03T11:03:42.393Z,7.03
2018-07-03T11:23:57.080Z,7.63
2018-07-03T11:26:26.523Z,6.90
2018-07-03T11:28:56.555Z,7.13
2018-07-03T11:31:25.796Z,6.43
2018-07-03T11:33:55.174Z,6.03
2018-07-03T11:36:24.428Z,6.50
2018-07-03T11:56:38.433Z,8.30
2018-07-03T11:59:07.792Z,8.30
2018-07-03T12:01:38.260Z,9.43
2018-07-03T12:04:08.220Z,8.77
2018-07-03T12:06:39.163Z,8.40
2018-07-03T12:09:09.785Z,9.00
2018-07-03T12:32:23.993Z,7.23
2018-07-03T12:34:53.200Z,6.70
2018-07-03T12:37:22.590Z,8.13
2018-07-03T12:39:52.025Z,7.83
2018-07-03T12:42:22.264Z,7.17
2018-07-03T13:02:36.799Z,6.10
2018-07-03T13:05:06.182Z,7.50
2018-07-03T13:07:36.017Z,7.70
2018-07-03T13:10:05.474Z,7.50
2018-07-03T13:12:34.761Z,8.30
2018-07-03T13:15:04.943Z,7.57
2018-07-03T13:17:36.322Z,8.80
2018-07-03T13:20:06.073Z,8.07
2018-07-03T13:22:36.265Z,9.20
2018-07-03T13:25:07.989Z,8.47
2018-07-03T13:27:38.313Z,11.63
2018-07-03T13:30:10.217Z,8.97
2018-07-03T13:32:40.357Z,8.47
2018-07-03T13:35:10.982Z,9.83
2018-07-03T13:37:40.249Z,9.93
2018-07-03T13:40:10.320Z,9.10
2018-07-03T13:42:39.655Z,9.80
2018-07-03T13:45:09.655Z,9.83
2018-07-03T13:47:38.993Z,9.80
2018-07-03T13:50:08.332Z,9.43
2018-07-03T13:52:37.626Z,9.10
2018-07-03T13:55:07.063Z,8.13
2018-07-03T13:57:37.003Z,8.47
2018-07-03T14:00:07.400Z,8.50
2018-07-03T14:02:36.895Z,16.87
2018-07-03T14:22:52.773Z,6.80
2018-07-03T14:25:27.164Z,7.93
2018-07-03T14:27:56.747Z,7.40
2018-07-03T14:30:28.714Z,8.63
2018-07-03T14:32:59.843Z,8.87
2018-07-03T14:35:30.758Z,7.90
2018-07-03T14:38:01.197Z,7.57
2018-07-03T14:40:30.502Z,7.53
2018-07-03T14:42:59.987Z,7.13
2018-07-03T15:03:14.463Z,6.50
2018-07-03T15:05:45.072Z,6.63
2018-07-03T15:08:14.435Z,6.53
2018-07-03T15:28:29.231Z,5.30
2018-07-03T15:30:58.658Z,4.77
2018-07-03T15:33:28.141Z,4.07
2018-07-03T15:35:57.490Z,5.37
2018-07-03T15:38:27.041Z,5.50
2018-07-03T15:40:56.994Z,4.07
2018-07-03T15:43:26.450Z,4.90
2018-07-03T16:05:49.338Z,5.83
2018-07-03T16:08:30.020Z,6.50
2018-07-03T16:10:59.445Z,5.20
2018-07-03T16:13:28.772Z,4.93
2018-07-03T16:15:58.083Z,6.33
2018-07-03T16:18:28.175Z,5.33
2018-07-03T16:20:57.466Z,5.70
2018-07-03T16:23:26.734Z,5.90
2018-07-03T16:25:56.101Z,5.93
2018-07-03T16:28:25.441Z,8.50
2018-07-03T16:48:40.732Z,7.23
2018-07-03T16:51:11.268Z,7.20
2018-07-03T16:53:42.432Z,7.93
2018-07-03T16:56:11.909Z,7.83
2018-07-03T16:58:41.667Z,6.97
2018-07-03T17:19:01.563Z,5.93
2018-07-03T17:21:30.929Z,8.47
2018-07-03T17:24:00.290Z,15.07
2018-07-03T17:26:29.900Z,38.80
2018-07-03T17:29:00.035Z,8.37
2018-07-03T17:31:29.391Z,7.20
2018-07-03T17:33:58.783Z,6.50
2018-07-03T17:36:28.016Z,8.20
2018-07-03T17:39:01.990Z,6.77
2018-07-03T17:41:42.475Z,6.87
2018-07-03T18:01:57.614Z,6.67
2018-07-03T18:04:27.122Z,8.07
2018-07-03T18:06:56.461Z,7.70
2018-07-03T18:09:26.612Z,6.90
2018-07-03T18:11:56.742Z,9.07
2018-07-03T18:14:26.114Z,8.13
2018-07-03T18:16:55.546Z,8.50
2018-07-03T18:37:11.005Z,6.03
2018-07-03T18:39:40.430Z,5.77
2018-07-03T18:42:09.718Z,5.63
2018-07-03T18:44:39.209Z,5.50
2018-07-03T18:47:10.488Z,5.90
2018-07-03T19:07:25.001Z,5.90
2018-07-03T19:27:40.052Z,6.10
2018-07-03T19:47:54.360Z,10.40
2018-07-03T19:50:23.850Z,11.83
2018-07-03T19:52:53.277Z,9.53
2018-07-03T19:55:22.702Z,10.03
2018-07-03T19:57:51.990Z,10.40
2018-07-03T20:00:21.463Z,9.00
2018-07-03T20:02:50.889Z,9.00
2018-07-03T20:23:06.902Z,11.93
2018-07-03T20:25:37.116Z,11.30
2018-07-03T20:28:07.135Z,10.53
2018-07-03T20:30:37.485Z,9.13
2018-07-03T20:33:07.179Z,8.97
2018-07-03T20:35:36.513Z,8.90
2018-07-03T20:38:07.124Z,8.13
2018-07-03T20:40:51.031Z,8.37
2018-07-03T20:43:20.406Z,8.13
2018-07-03T21:03:28.867Z,9.13
2018-07-03T21:05:58.274Z,10.53
2018-07-03T21:08:27.577Z,10.63
2018-07-03T21:10:56.973Z,9.87
2018-07-03T21:13:26.998Z,9.93
2018-07-03T21:15:57.043Z,11.30
2018-07-03T21:18:26.370Z,10.70
2018-07-03T21:20:55.893Z,10.53
2018-07-03T21:23:25.176Z,11.17
2018-07-03T21:25:54.495Z,11.77
2018-07-03T21:28:24.593Z,10.23
2018-07-03T21:30:54.090Z,11.53
2018-07-03T21:33:23.406Z,11.40
2018-07-03T21:35:52.710Z,11.97
2018-07-03T21:38:22.542Z,10.63
2018-07-03T21:40:51.904Z,13.80
2018-07-03T21:43:21.574Z,9.83
2018-07-03T21:45:50.987Z,11.33
2018-07-03T21:48:21.431Z,10.47
2018-07-03T21:50:50.438Z,12.07
2018-07-03T21:53:19.584Z,12.10
2018-07-03T22:13:33.843Z,10.47
2018-07-03T22:16:03.550Z,11.17
2018-07-03T22:36:18.411Z,10.67
2018-07-03T22:38:47.774Z,10.07
2018-07-03T22:41:17.203Z,9.90
2018-07-03T22:43:46.683Z,12.37
2018-07-03T22:46:16.033Z,12.53
2018-07-03T22:48:45.489Z,10.63
2018-07-03T23:09:00.011Z,10.10
2018-07-03T23:29:14.990Z,12.70
2018-07-03T23:31:44.486Z,13.00
2018-07-03T23:34:13.793Z,12.67
2018-07-03T23:36:43.072Z,12.30
2018-07-03T23:39:12.299Z,11.63
2018-07-03T23:41:41.893Z,11.27
2018-07-03T23:44:11.334Z,11.37
2018-07-03T23:46:52.126Z,11.83
2018-07-03T23:49:38.756Z,13.30
2018-07-03T23:52:25.204Z,12.67
2018-07-03T23:55:11.765Z,12.50
2018-07-03T23:57:58.320Z,12.57
